Terminal Aerodrome Forecast
Issued by NWS

Home | Current Version | Previous Version | Text Only | Print | Product List | Glossary On
Versions: 1 2 3 4 5 6 7 8 9 10 11 12 13 14
000
FTUS42 KGSP 281720
TAFHKY
TAF
KHKY 281720Z 2818/2918 22010KT P6SM FEW050
     FM282000 22015KT P6SM VCSH SCT060 SCT200
     FM290000 23008KT P6SM FEW250
     FM290300 26005KT P6SM FEW045
     FM291200 VRB03KT P6SM BKN250=

USA.gov is the U.S. government's official web portal to all federal, state and local government web resources and services.